Terminal Aerodrome Forecast
Issued by NWS Rapid City, SD

Home | Current Version | Previous Version | Graphics & Text | Print | Product List | Glossary On
Versions: 1 2 3 4 5 6 7 8 9 10 11 12 13 14 15 16 17 18 19 20 21 22 23 24 25 26 27 28
132
FTUS43 KUNR 212320
TAFRAP
TAF
KRAP 212320Z 2200/2224 03010KT P6SM SCT025 BKN120
     FM220800 03007KT 5SM -DZ BR SCT004 OVC007
     FM221500 05010KT P6SM SCT008 OVC010
     FM222000 09011KT P6SM BKN025=

USA.gov is the U.S. government's official web portal to all federal, state and local government web resources and services.